createdAt,value
2018-10-12T00:00:43.234Z,101543.00
2018-10-12T00:03:13.202Z,101533.00
2018-10-12T00:05:43.104Z,101532.00
2018-10-12T00:08:12.548Z,101544.00
2018-10-12T00:10:41.864Z,101543.00
2018-10-12T00:13:11.283Z,101543.00
2018-10-12T00:15:40.712Z,101548.00
2018-10-12T00:18:10.073Z,101551.00
2018-10-12T00:20:39.460Z,101558.00
2018-10-12T00:23:08.884Z,101555.00
2018-10-12T00:25:38.381Z,101552.00
2018-10-12T00:28:08.564Z,101550.00
2018-10-12T00:30:38.467Z,101549.00
2018-10-12T00:33:08.538Z,101555.00
2018-10-12T00:35:38.391Z,101555.00
2018-10-12T00:38:08.435Z,101556.00
2018-10-12T00:40:38.422Z,101559.00
2018-10-12T00:43:08.499Z,101566.00
2018-10-12T00:45:38.405Z,101567.00
2018-10-12T00:48:08.449Z,101570.00
2018-10-12T00:50:38.500Z,101580.00
2018-10-12T00:53:08.481Z,101581.00
2018-10-12T00:55:38.489Z,101586.00
2018-10-12T00:58:08.919Z,101589.00
2018-10-12T01:00:38.702Z,101586.00
2018-10-12T01:03:08.618Z,101584.00
2018-10-12T01:05:38.504Z,101580.00
2018-10-12T01:08:08.975Z,101577.00
2018-10-12T01:10:38.589Z,101587.00
2018-10-12T01:13:08.514Z,101584.00
2018-10-12T01:15:38.574Z,101580.00
2018-10-12T01:18:08.610Z,101580.00
2018-10-12T01:20:38.696Z,101579.00
2018-10-12T01:23:08.749Z,101579.00
2018-10-12T01:25:38.539Z,101589.00
2018-10-12T01:28:08.658Z,101595.00
2018-10-12T01:30:38.644Z,101596.00
2018-10-12T01:33:08.677Z,101595.00
2018-10-12T01:35:38.593Z,101588.00
2018-10-12T01:38:08.695Z,101582.00
2018-10-12T01:40:38.557Z,101576.00
2018-10-12T01:43:08.690Z,101583.00
2018-10-12T01:45:38.609Z,101589.00
2018-10-12T01:48:08.633Z,101585.00
2018-10-12T01:50:38.668Z,101585.00
2018-10-12T01:53:08.659Z,101583.00
2018-10-12T01:55:38.645Z,101589.00
2018-10-12T01:58:08.694Z,101587.00
2018-10-12T02:00:38.697Z,101590.00
2018-10-12T02:03:08.719Z,101591.00
2018-10-12T02:05:38.712Z,101587.00
2018-10-12T02:08:08.664Z,101586.00
2018-10-12T02:10:38.724Z,101584.00
2018-10-12T02:13:08.646Z,101594.00
2018-10-12T02:15:38.630Z,101591.00
2018-10-12T02:18:08.660Z,101593.00
2018-10-12T02:20:38.617Z,101591.00
2018-10-12T02:23:08.734Z,101597.00
2018-10-12T02:25:38.706Z,101597.00
2018-10-12T02:28:08.649Z,101592.00
2018-10-12T02:30:38.761Z,101593.00
2018-10-12T02:33:08.727Z,101601.00
2018-10-12T02:35:38.696Z,101603.00
2018-10-12T02:38:08.815Z,101605.00
2018-10-12T02:40:38.772Z,101593.00
2018-10-12T02:43:08.821Z,101605.00
2018-10-12T02:45:38.659Z,101609.00
2018-10-12T02:48:08.739Z,101612.00
2018-10-12T02:50:38.737Z,101618.00
2018-10-12T02:53:08.761Z,101613.00
2018-10-12T02:55:38.805Z,101608.00
2018-10-12T02:58:08.855Z,101605.00
2018-10-12T03:00:38.726Z,101598.00
2018-10-12T03:03:08.683Z,101599.00
2018-10-12T03:05:38.782Z,101598.00
2018-10-12T03:08:08.703Z,101603.00
2018-10-12T03:10:38.869Z,101600.00
2018-10-12T03:13:08.815Z,101607.00
2018-10-12T03:15:38.785Z,101605.00
2018-10-12T03:18:08.713Z,101602.00
2018-10-12T03:20:38.807Z,101599.00
2018-10-12T03:23:08.767Z,101587.00
2018-10-12T03:25:38.843Z,101591.00
2018-10-12T03:28:23.996Z,101589.00
2018-10-12T03:30:53.507Z,101594.00
2018-10-12T03:33:22.989Z,101589.00
2018-10-12T03:35:52.352Z,101594.00
2018-10-12T03:38:21.745Z,101597.00
2018-10-12T03:40:51.205Z,101599.00
2018-10-12T03:43:20.589Z,101598.00
2018-10-12T03:45:49.963Z,101600.00
2018-10-12T03:48:19.338Z,101600.00
2018-10-12T03:50:48.671Z,101597.00
2018-10-12T03:53:18.328Z,101608.00
2018-10-12T03:55:47.674Z,101603.00
2018-10-12T03:58:17.128Z,101599.00
2018-10-12T04:00:46.520Z,101605.00
2018-10-12T04:03:15.890Z,101611.00
2018-10-12T04:05:45.312Z,101616.00
2018-10-12T04:08:14.899Z,101621.00
2018-10-12T04:10:44.311Z,101629.00
2018-10-12T04:13:13.701Z,101635.00
2018-10-12T04:15:43.108Z,101635.00
2018-10-12T04:18:12.462Z,101638.00
2018-10-12T04:20:41.830Z,101636.00
2018-10-12T04:23:11.235Z,101637.00
2018-10-12T04:25:40.630Z,101635.00
2018-10-12T04:28:09.967Z,101648.00
2018-10-12T04:30:39.407Z,101639.00
2018-10-12T04:33:09.054Z,101644.00
2018-10-12T04:35:38.988Z,101631.00
2018-10-12T04:38:08.974Z,101644.00
2018-10-12T04:41:26.978Z,101644.00
2018-10-12T04:43:57.878Z,101641.00
2018-10-12T04:46:37.238Z,101644.00
2018-10-12T04:49:09.505Z,101650.00
2018-10-12T04:51:50.530Z,101642.00
2018-10-12T04:54:20.585Z,101642.00
2018-10-12T04:56:50.466Z,101646.00
2018-10-12T04:59:20.225Z,101661.00
2018-10-12T05:01:49.744Z,101664.00
2018-10-12T05:04:19.211Z,101667.00
2018-10-12T05:06:48.637Z,101665.00
2018-10-12T05:09:18.064Z,101670.00
2018-10-12T05:11:47.483Z,101670.00
2018-10-12T05:14:16.986Z,101680.00
2018-10-12T05:16:46.434Z,101681.00
2018-10-12T05:19:15.927Z,101691.00
2018-10-12T05:21:45.325Z,101701.00
2018-10-12T05:24:14.794Z,101712.00
2018-10-12T05:26:44.215Z,101722.00
2018-10-12T05:29:13.641Z,101730.00
2018-10-12T05:31:43.127Z,101744.00
2018-10-12T05:34:12.567Z,101747.00
2018-10-12T05:36:42.027Z,101745.00
2018-10-12T05:39:13.673Z,101747.00
2018-10-12T05:41:43.356Z,101747.00
2018-10-12T05:44:12.762Z,101760.00
2018-10-12T05:46:42.227Z,101764.00
2018-10-12T05:49:28.454Z,101766.00
2018-10-12T05:52:03.019Z,101760.00
2018-10-12T05:54:32.423Z,101768.00
2018-10-12T05:57:01.882Z,101769.00
2018-10-12T05:59:31.317Z,101772.00
2018-10-12T06:02:00.754Z,101777.00
2018-10-12T06:04:30.209Z,101776.00
2018-10-12T06:06:59.670Z,101787.00
2018-10-12T06:09:29.155Z,101790.00
2018-10-12T06:11:58.496Z,101793.00
2018-10-12T06:14:27.933Z,101788.00
2018-10-12T06:16:57.380Z,101795.00
2018-10-12T06:19:26.790Z,101800.00
2018-10-12T06:21:56.209Z,101804.00
2018-10-12T06:24:25.633Z,101809.00
2018-10-12T06:26:55.142Z,101812.00
2018-10-12T06:29:24.597Z,101811.00
2018-10-12T06:31:54.025Z,101808.00
2018-10-12T06:34:23.489Z,101815.00
2018-10-12T06:36:52.893Z,101825.00
2018-10-12T06:39:22.313Z,101825.00
2018-10-12T06:41:53.368Z,101831.00
2018-10-12T06:44:22.776Z,101833.00
2018-10-12T06:46:52.250Z,101837.00
2018-10-12T06:49:21.617Z,101839.00
2018-10-12T06:51:51.066Z,101844.00
2018-10-12T06:54:20.418Z,101844.00
2018-10-12T06:56:49.941Z,101842.00
2018-10-12T06:59:19.380Z,101841.00
2018-10-12T07:01:48.857Z,101845.00
2018-10-12T07:04:18.311Z,101848.00
2018-10-12T07:06:47.840Z,101856.00
2018-10-12T07:09:17.299Z,101861.00
2018-10-12T07:11:46.656Z,101858.00
2018-10-12T07:14:16.071Z,101858.00
2018-10-12T07:16:45.412Z,101861.00
2018-10-12T07:19:14.868Z,101866.00
2018-10-12T07:21:44.266Z,101879.00
2018-10-12T07:24:13.688Z,101878.00
2018-10-12T07:26:43.025Z,101882.00
2018-10-12T07:29:12.449Z,101877.00
2018-10-12T07:31:41.916Z,101876.00
2018-10-12T07:34:11.310Z,101876.00
2018-10-12T07:36:40.791Z,101879.00
2018-10-12T07:39:10.312Z,101883.00
2018-10-12T07:41:39.738Z,101894.00
2018-10-12T07:44:09.377Z,101900.00
2018-10-12T07:46:39.444Z,101909.00
2018-10-12T07:49:09.487Z,101911.00
2018-10-12T07:51:39.323Z,101917.00
2018-10-12T07:54:09.394Z,101918.00
2018-10-12T07:56:39.700Z,101920.00
2018-10-12T07:59:09.500Z,101930.00
2018-10-12T08:01:39.486Z,101929.00
2018-10-12T08:04:09.449Z,101936.00
2018-10-12T08:06:39.404Z,101942.00
2018-10-12T08:09:09.654Z,101944.00
2018-10-12T08:11:39.449Z,101951.00
2018-10-12T08:14:09.545Z,101942.00
2018-10-12T08:16:39.388Z,101950.00
2018-10-12T08:19:13.053Z,101959.00
2018-10-12T08:21:44.432Z,101960.00
2018-10-12T08:24:13.972Z,101967.00
2018-10-12T08:26:43.461Z,101964.00
2018-10-12T08:29:13.021Z,101971.00
2018-10-12T08:31:42.557Z,101975.00
2018-10-12T08:34:11.990Z,101970.00
2018-10-12T08:36:41.487Z,101976.00
2018-10-12T08:39:12.823Z,101976.00
2018-10-12T08:41:42.289Z,101968.00
2018-10-12T08:44:11.800Z,101975.00
2018-10-12T08:46:41.207Z,101982.00
2018-10-12T08:49:10.787Z,101978.00
2018-10-12T08:51:40.265Z,101978.00
2018-10-12T08:54:10.032Z,101983.00
2018-10-12T08:56:39.692Z,101986.00
2018-10-12T08:59:09.616Z,101986.00
2018-10-12T09:01:39.543Z,101995.00
2018-10-12T09:04:09.551Z,101993.00
2018-10-12T09:06:39.534Z,102001.00
2018-10-12T09:09:11.056Z,102001.00
2018-10-12T09:11:41.364Z,102008.00
2018-10-12T09:14:10.856Z,102011.00
2018-10-12T09:16:40.276Z,102011.00
2018-10-12T09:19:09.770Z,102014.00
2018-10-12T09:21:39.645Z,102010.00
2018-10-12T09:24:09.512Z,102002.00
2018-10-12T09:26:39.987Z,101996.00
2018-10-12T09:29:15.544Z,101999.00
2018-10-12T09:31:45.052Z,102003.00
2018-10-12T09:34:14.450Z,101991.00
2018-10-12T09:36:43.910Z,102010.00
2018-10-12T09:39:13.292Z,102010.00
2018-10-12T09:41:42.700Z,102003.00
2018-10-12T09:44:12.145Z,101998.00
2018-10-12T09:46:41.597Z,101998.00
2018-10-12T09:49:11.081Z,102000.00
2018-10-12T09:51:40.698Z,102000.00
2018-10-12T09:54:10.968Z,101997.00
2018-10-12T09:56:40.581Z,102000.00
2018-10-12T09:59:10.323Z,101994.00
2018-10-12T10:01:49.508Z,101995.00
2018-10-12T10:04:24.162Z,101994.00
2018-10-12T10:06:53.944Z,101988.00
2018-10-12T10:09:23.745Z,101991.00
2018-10-12T10:11:54.112Z,101999.00
2018-10-12T10:14:23.628Z,102002.00
2018-10-12T10:16:53.635Z,102000.00
2018-10-12T10:19:23.213Z,102000.00
2018-10-12T10:21:54.667Z,102000.00
2018-10-12T10:24:24.966Z,102006.00
2018-10-12T10:26:56.627Z,102007.00
2018-10-12T10:29:26.291Z,102006.00
2018-10-12T10:31:56.505Z,101992.00
2018-10-12T10:34:25.981Z,102000.00
2018-10-12T10:36:55.410Z,101987.00
2018-10-12T10:39:24.899Z,102005.00
2018-10-12T10:41:54.517Z,101999.00
2018-10-12T10:44:24.659Z,102002.00
2018-10-12T10:46:54.119Z,102006.00
2018-10-12T10:49:23.535Z,102002.00
2018-10-12T10:51:54.800Z,101996.00
2018-10-12T10:54:24.293Z,101986.00
2018-10-12T10:56:57.939Z,101984.00
2018-10-12T10:59:27.567Z,101992.00
2018-10-12T11:01:57.083Z,101990.00
2018-10-12T11:04:26.559Z,101995.00
2018-10-12T11:06:55.988Z,101987.00
2018-10-12T11:09:25.434Z,101992.00
2018-10-12T11:11:54.919Z,101994.00
2018-10-12T11:14:24.388Z,101980.00
2018-10-12T11:16:53.850Z,101988.00
2018-10-12T11:19:23.312Z,101988.00
2018-10-12T11:21:52.750Z,101980.00
2018-10-12T11:24:22.172Z,101979.00
2018-10-12T11:26:51.742Z,101979.00
2018-10-12T11:29:21.179Z,101980.00
2018-10-12T11:31:50.594Z,101978.00
2018-10-12T11:34:19.997Z,101977.00
2018-10-12T11:36:49.441Z,101988.00
2018-10-12T11:39:18.807Z,101979.00
2018-10-12T11:41:48.263Z,101978.00
2018-10-12T11:44:17.649Z,101967.00
2018-10-12T11:46:47.058Z,101968.00
2018-10-12T11:49:16.526Z,101958.00
2018-10-12T11:51:45.974Z,101967.00
2018-10-12T11:54:15.356Z,101964.00
2018-10-12T11:56:44.745Z,101971.00
2018-10-12T11:59:14.215Z,101975.00
2018-10-12T12:01:43.680Z,101968.00
2018-10-12T12:04:13.191Z,101968.00
2018-10-12T12:06:42.601Z,101980.00
2018-10-12T12:09:12.040Z,101977.00
2018-10-12T12:11:41.568Z,101979.00
2018-10-12T12:14:10.903Z,101974.00
2018-10-12T12:16:40.320Z,101974.00
2018-10-12T12:19:10.551Z,101983.00
2018-10-12T12:21:39.915Z,101974.00
2018-10-12T12:24:09.855Z,101976.00
2018-10-12T12:26:40.096Z,101978.00
2018-10-12T12:29:10.178Z,101979.00
2018-10-12T12:31:40.004Z,101981.00
2018-10-12T12:34:09.946Z,101986.00
2018-10-12T12:36:40.193Z,101977.00
2018-10-12T12:39:09.939Z,101986.00
2018-10-12T12:41:40.085Z,101985.00
2018-10-12T12:44:10.505Z,101979.00
2018-10-12T12:46:40.127Z,101986.00
2018-10-12T12:49:10.563Z,101988.00
2018-10-12T12:51:40.243Z,101992.00
2018-10-12T12:54:10.956Z,101982.00
2018-10-12T12:56:40.653Z,101987.00
2018-10-12T12:59:10.142Z,101987.00
2018-10-12T13:01:40.164Z,101990.00
2018-10-12T13:04:12.499Z,101994.00
2018-10-12T13:06:42.314Z,101993.00
2018-10-12T13:09:11.783Z,101996.00
2018-10-12T13:11:41.197Z,101985.00
2018-10-12T13:14:10.761Z,101998.00
2018-10-12T13:16:40.194Z,102002.00
2018-10-12T13:19:10.855Z,102009.00
2018-10-12T13:21:40.421Z,102011.00
2018-10-12T13:24:10.197Z,102013.00
2018-10-12T13:26:40.869Z,102017.00
2018-10-12T13:29:11.440Z,102015.00
2018-10-12T13:31:41.045Z,102021.00
2018-10-12T13:34:12.453Z,102021.00
2018-10-12T13:36:41.820Z,102025.00
2018-10-12T13:39:12.636Z,102018.00
2018-10-12T13:41:42.124Z,102025.00
2018-10-12T13:44:11.520Z,102035.00
2018-10-12T13:46:40.983Z,102037.00
2018-10-12T13:49:10.459Z,102031.00
2018-10-12T13:51:40.104Z,102035.00
2018-10-12T13:54:10.205Z,102040.00
2018-10-12T13:56:40.316Z,102042.00
2018-10-12T13:59:10.072Z,102033.00
2018-10-12T14:01:40.200Z,102040.00
2018-10-12T14:04:10.163Z,102042.00
2018-10-12T14:06:40.057Z,102041.00
2018-10-12T14:09:10.155Z,102040.00
2018-10-12T14:11:40.183Z,102041.00
2018-10-12T14:14:10.201Z,102041.00
2018-10-12T14:16:40.124Z,102035.00
2018-10-12T14:19:11.307Z,102038.00
2018-10-12T14:21:40.523Z,102043.00
2018-10-12T14:24:10.333Z,102039.00
2018-10-12T14:26:40.160Z,102043.00
2018-10-12T14:29:10.184Z,102039.00
2018-10-12T14:31:40.457Z,102036.00
2018-10-12T14:34:10.450Z,102039.00
2018-10-12T14:36:40.335Z,102041.00
2018-10-12T14:39:11.255Z,102038.00
2018-10-12T14:41:40.898Z,102041.00
2018-10-12T14:44:10.358Z,102039.00
2018-10-12T14:46:40.241Z,102042.00
2018-10-12T14:49:10.286Z,102039.00
2018-10-12T14:51:40.277Z,102039.00
2018-10-12T14:54:10.257Z,102041.00
2018-10-12T14:56:40.359Z,102035.00
2018-10-12T14:59:10.332Z,102030.00
2018-10-12T15:01:40.336Z,102031.00
2018-10-12T15:04:10.309Z,102034.00
2018-10-12T15:06:40.472Z,102034.00
2018-10-12T15:09:12.911Z,102032.00
2018-10-12T15:11:42.666Z,102039.00
2018-10-12T15:14:12.294Z,102042.00
2018-10-12T15:16:41.689Z,102058.00
2018-10-12T15:19:11.028Z,102059.00
2018-10-12T15:21:40.512Z,102058.00
2018-10-12T15:24:10.297Z,102063.00
2018-10-12T15:26:40.485Z,102060.00
2018-10-12T15:29:10.488Z,102072.00
2018-10-12T15:31:40.493Z,102077.00
2018-10-12T15:34:10.387Z,102081.00
2018-10-12T15:36:40.442Z,102079.00
2018-10-12T15:39:10.414Z,102077.00
2018-10-12T15:41:40.413Z,102076.00
2018-10-12T15:44:10.600Z,102076.00
2018-10-12T15:46:40.339Z,102078.00
2018-10-12T15:49:10.555Z,102077.00
2018-10-12T15:51:40.503Z,102077.00
2018-10-12T15:54:10.448Z,102078.00
2018-10-12T15:56:40.431Z,102080.00
2018-10-12T15:59:10.591Z,102081.00
2018-10-12T16:01:40.468Z,102077.00
2018-10-12T16:04:10.596Z,102077.00
2018-10-12T16:06:40.480Z,102081.00
2018-10-12T16:09:10.544Z,102083.00
2018-10-12T16:11:40.561Z,102079.00
2018-10-12T16:14:10.561Z,102080.00
2018-10-12T16:16:40.543Z,102078.00
2018-10-12T16:19:11.548Z,102086.00
2018-10-12T16:21:40.960Z,102083.00
2018-10-12T16:24:12.763Z,102080.00
2018-10-12T16:26:42.174Z,102082.00
2018-10-12T16:29:11.566Z,102080.00
2018-10-12T16:31:40.918Z,102078.00
2018-10-12T16:34:10.600Z,102077.00
2018-10-12T16:36:40.589Z,102080.00
2018-10-12T16:39:11.108Z,102083.00
2018-10-12T16:41:40.949Z,102083.00
2018-10-12T16:44:10.848Z,102085.00
2018-10-12T16:46:40.573Z,102081.00
2018-10-12T16:49:10.508Z,102087.00
2018-10-12T16:51:40.654Z,102086.00
2018-10-12T16:54:10.657Z,102092.00
2018-10-12T16:56:40.474Z,102089.00
2018-10-12T16:59:10.608Z,102082.00
2018-10-12T17:01:40.703Z,102089.00
2018-10-12T17:04:11.923Z,102089.00
2018-10-12T17:06:41.264Z,102091.00
2018-10-12T17:09:10.655Z,102092.00
2018-10-12T17:11:40.986Z,102093.00
2018-10-12T17:14:10.581Z,102093.00
2018-10-12T17:16:40.578Z,102092.00
2018-10-12T17:19:10.628Z,102094.00
2018-10-12T17:21:40.606Z,102097.00
2018-10-12T17:24:10.696Z,102098.00
2018-10-12T17:26:40.661Z,102101.00
2018-10-12T17:29:10.735Z,102101.00
2018-10-12T17:31:40.856Z,102106.00
2018-10-12T17:34:10.645Z,102101.00
2018-10-12T17:36:40.831Z,102101.00
2018-10-12T17:39:13.061Z,102103.00
2018-10-12T17:41:42.463Z,102104.00
2018-10-12T17:44:11.847Z,102108.00
2018-10-12T17:46:41.232Z,102107.00
2018-10-12T17:49:10.742Z,102113.00
2018-10-12T17:51:40.655Z,102114.00
2018-10-12T17:54:10.689Z,102113.00
2018-10-12T17:56:40.768Z,102114.00
2018-10-12T17:59:12.081Z,102119.00
2018-10-12T18:01:41.439Z,102119.00
2018-10-12T18:04:10.897Z,102125.00
2018-10-12T18:06:40.823Z,102121.00
2018-10-12T18:09:10.856Z,102123.00
2018-10-12T18:11:40.847Z,102120.00
2018-10-12T18:14:10.916Z,102122.00
2018-10-12T18:16:42.159Z,102122.00
2018-10-12T18:19:11.477Z,102116.00
2018-10-12T18:21:40.808Z,102115.00
2018-10-12T18:24:10.839Z,102115.00
2018-10-12T18:26:40.863Z,102116.00
2018-10-12T18:29:11.020Z,102116.00
2018-10-12T18:31:40.962Z,102107.00
2018-10-12T18:34:10.871Z,102108.00
2018-10-12T18:36:41.046Z,102110.00
2018-10-12T18:39:11.469Z,102114.00
2018-10-12T18:41:40.908Z,102110.00
2018-10-12T18:44:11.004Z,102120.00
2018-10-12T18:46:40.918Z,102112.00
2018-10-12T18:49:10.948Z,102110.00
2018-10-12T18:51:40.901Z,102111.00
2018-10-12T18:54:11.050Z,102108.00
2018-10-12T18:56:40.889Z,102107.00
2018-10-12T18:59:10.985Z,102108.00
2018-10-12T19:01:40.882Z,102109.00
2018-10-12T19:04:11.070Z,102116.00
2018-10-12T19:06:41.031Z,102110.00
2018-10-12T19:09:11.224Z,102115.00
2018-10-12T19:11:41.539Z,102115.00
2018-10-12T19:14:10.938Z,102110.00
2018-10-12T19:16:41.081Z,102113.00
2018-10-12T19:19:10.912Z,102110.00
2018-10-12T19:21:40.918Z,102108.00
2018-10-12T19:24:10.985Z,102106.00
2018-10-12T19:26:40.940Z,102106.00
2018-10-12T19:29:11.010Z,102111.00
2018-10-12T19:31:40.994Z,102107.00
2018-10-12T19:34:11.074Z,102116.00
2018-10-12T19:36:41.056Z,102112.00
2018-10-12T19:39:11.113Z,102116.00
2018-10-12T19:41:41.040Z,102119.00
2018-10-12T19:44:11.086Z,102122.00
2018-10-12T19:46:40.974Z,102120.00
2018-10-12T19:49:11.113Z,102120.00
2018-10-12T19:51:41.122Z,102126.00
2018-10-12T19:54:11.310Z,102127.00
2018-10-12T19:56:41.036Z,102127.00
2018-10-12T19:59:11.146Z,102132.00
2018-10-12T20:01:43.484Z,102132.00
2018-10-12T20:04:13.037Z,102139.00
2018-10-12T20:06:42.402Z,102129.00
2018-10-12T20:09:12.525Z,102138.00
2018-10-12T20:11:42.287Z,102131.00
2018-10-12T20:14:11.605Z,102136.00
2018-10-12T20:16:41.125Z,102136.00
2018-10-12T20:19:11.158Z,102143.00
2018-10-12T20:21:41.298Z,102144.00
2018-10-12T20:24:11.082Z,102144.00
2018-10-12T20:26:41.114Z,102149.00
2018-10-12T20:29:11.075Z,102150.00
2018-10-12T20:31:41.149Z,102149.00
2018-10-12T20:34:11.266Z,102151.00
2018-10-12T20:36:41.130Z,102156.00
2018-10-12T20:39:12.208Z,102152.00
2018-10-12T20:41:41.504Z,102151.00
2018-10-12T20:44:11.256Z,102153.00
2018-10-12T20:46:41.152Z,102152.00
2018-10-12T20:49:11.169Z,102155.00
2018-10-12T20:51:41.917Z,102154.00
2018-10-12T20:54:18.131Z,102151.00
2018-10-12T20:56:47.504Z,102152.00
2018-10-12T20:59:16.844Z,102145.00
2018-10-12T21:01:46.245Z,102143.00
2018-10-12T21:04:15.634Z,102152.00
2018-10-12T21:06:45.039Z,102148.00
2018-10-12T21:09:14.340Z,102146.00
2018-10-12T21:11:43.743Z,102144.00
2018-10-12T21:14:13.113Z,102146.00
2018-10-12T21:16:42.550Z,102147.00
2018-10-12T21:19:11.888Z,102150.00
2018-10-12T21:21:41.350Z,102151.00
2018-10-12T21:24:11.617Z,102153.00
2018-10-12T21:26:41.253Z,102153.00
2018-10-12T21:29:11.299Z,102152.00
2018-10-12T21:31:41.299Z,102151.00
2018-10-12T21:34:11.444Z,102153.00
2018-10-12T21:36:41.295Z,102151.00
2018-10-12T21:39:11.406Z,102151.00
2018-10-12T21:41:42.607Z,102149.00
2018-10-12T21:44:12.015Z,102154.00
2018-10-12T21:46:41.464Z,102154.00
2018-10-12T21:49:11.427Z,102150.00
2018-10-12T21:51:41.433Z,102158.00
2018-10-12T21:54:11.671Z,102158.00
2018-10-12T21:56:41.400Z,102158.00
2018-10-12T21:59:11.317Z,102157.00
2018-10-12T22:01:41.416Z,102147.00
2018-10-12T22:04:11.428Z,102159.00
2018-10-12T22:06:41.325Z,102156.00
2018-10-12T22:09:11.374Z,102154.00
2018-10-12T22:11:41.388Z,102151.00
2018-10-12T22:14:11.418Z,102149.00
2018-10-12T22:16:41.443Z,102146.00
2018-10-12T22:19:11.496Z,102141.00
2018-10-12T22:21:41.512Z,102140.00
2018-10-12T22:24:11.526Z,102142.00
2018-10-12T22:26:41.437Z,102138.00
2018-10-12T22:29:11.398Z,102139.00
2018-10-12T22:31:41.485Z,102137.00
2018-10-12T22:34:11.405Z,102136.00
2018-10-12T22:36:41.543Z,102139.00
2018-10-12T22:39:11.702Z,102137.00
2018-10-12T22:41:41.109Z,102140.00
2018-10-12T22:44:10.434Z,102140.00
2018-10-12T22:46:39.829Z,102143.00
2018-10-12T22:49:09.178Z,102137.00
2018-10-12T22:51:38.589Z,102138.00
2018-10-12T22:54:08.023Z,102137.00
2018-10-12T22:56:37.413Z,102133.00
2018-10-12T22:59:07.106Z,102132.00
2018-10-12T23:01:36.601Z,102136.00
2018-10-12T23:04:06.010Z,102137.00
2018-10-12T23:06:35.297Z,102138.00
2018-10-12T23:09:05.010Z,102139.00
2018-10-12T23:11:34.354Z,102138.00
2018-10-12T23:14:03.701Z,102140.00
2018-10-12T23:16:33.086Z,102136.00
2018-10-12T23:19:02.466Z,102138.00
2018-10-12T23:21:35.776Z,102138.00
2018-10-12T23:24:05.227Z,102139.00
2018-10-12T23:26:34.591Z,102138.00
2018-10-12T23:29:03.958Z,102137.00
2018-10-12T23:31:33.397Z,102136.00
2018-10-12T23:34:08.103Z,102135.00
2018-10-12T23:36:37.533Z,102138.00
2018-10-12T23:39:10.235Z,102138.00
2018-10-12T23:41:39.613Z,102138.00
2018-10-12T23:44:09.002Z,102136.00
2018-10-12T23:46:38.399Z,102138.00
2018-10-12T23:49:07.854Z,102132.00
2018-10-12T23:51:37.210Z,102133.00
2018-10-12T23:54:06.711Z,102138.00
2018-10-12T23:56:36.025Z,102138.00
2018-10-12T23:59:05.476Z,102140.00
